Time;durP1;ratioP1;P1;durP2;ratioP2;P2;SDS_P1;SDS_P2;PMS_P1;PMS_P2;Temp;Humidity;BMP_temperature;BMP_pressure;BME280_temperature;BME280_humidity;BME280_pressure;Samples;Min_cycle;Max_cycle;Signal;HPM_P1;HPM_P2
2022/05/11 00:01:25;;;;;;;6.80;3.97;;;;;;;-145.69;100.00;71589.44;5075215;28;20202;-74
2022/05/11 00:03:52;;;;;;;6.20;4.40;;;;;;;-145.69;100.00;71585.47;5075405;28;20206;-74
2022/05/11 00:06:18;;;;;;;14.57;3.80;;;;;;;-145.69;100.00;71609.34;5075044;28;20264;-74
2022/05/11 00:08:46;;;;;;;6.97;4.10;;;;;;;-145.69;100.00;71625.25;5074932;28;20730;-74
2022/05/11 00:11:15;;;;;;;5.63;3.93;;;;;;;-145.69;100.00;71629.25;5074933;28;20202;-74
2022/05/11 00:13:44;;;;;;;6.17;4.50;;;;;;;-145.69;100.00;71637.19;5074428;28;20223;-75
2022/05/11 00:16:10;;;;;;;8.60;4.83;;;;;;;-145.69;100.00;71635.22;5075071;28;20226;-74
2022/05/11 00:18:37;;;;;;;6.80;4.50;;;;;;;-145.69;100.00;71617.31;5074884;28;20207;-74
2022/05/11 00:21:04;;;;;;;6.80;4.83;;;;;;;-145.69;100.00;71619.28;5074755;28;20661;-74
2022/05/11 00:23:31;;;;;;;7.17;4.50;;;;;;;-145.69;100.00;71623.28;5074257;28;20652;-74
2022/05/11 00:25:59;;;;;;;7.27;4.67;;;;;;;-145.69;100.00;71637.19;5074211;28;20597;-74
2022/05/11 00:28:25;;;;;;;5.50;4.33;;;;;;;-145.69;100.00;71645.16;5074059;28;20195;-74
2022/05/11 00:30:52;;;;;;;7.70;4.83;;;;;;;-145.69;100.00;71659.09;5074757;28;20240;-74
2022/05/11 00:33:20;;;;;;;7.53;4.90;;;;;;;-145.69;100.00;71677.00;5071587;28;20227;-75
2022/05/11 00:35:52;;;;;;;7.77;5.00;;;;;;;-145.69;100.00;71688.94;5074540;28;20836;-74
2022/05/11 00:38:22;;;;;;;11.43;5.67;;;;;;;-145.69;100.00;71686.97;5074535;28;20201;-74
2022/05/11 00:40:51;;;;;;;11.73;5.80;;;;;;;-145.69;100.00;71665.06;5074296;28;20202;-74
2022/05/11 00:43:31;;;;;;;10.00;5.50;;;;;;;-145.69;100.00;71665.06;5073662;28;20645;-74
2022/05/11 00:46:09;;;;;;;11.27;6.13;;;;;;;-145.69;100.00;71661.09;5074285;28;20198;-74
2022/05/11 00:51:20;;;;;;;9.43;5.80;;;;;;;-145.69;100.00;71633.22;5074131;28;20284;-74
2022/05/11 00:53:55;;;;;;;8.90;5.73;;;;;;;-145.69;100.00;71639.19;5073643;28;20226;-75
2022/05/11 00:56:23;;;;;;;12.13;6.20;;;;;;;-145.69;100.00;71633.22;5074188;28;20194;-74
2022/05/11 00:58:56;;;;;;;7.70;5.70;;;;;;;-145.69;100.00;71629.25;5074060;28;20665;-74
2022/05/11 01:01:23;;;;;;;10.30;6.23;;;;;;;-145.69;100.00;71633.22;5074009;28;20612;-74
2022/05/11 01:03:54;;;;;;;9.77;6.23;;;;;;;-145.69;100.00;71633.22;5073910;28;20206;-74
2022/05/11 01:06:23;;;;;;;9.43;6.60;;;;;;;-145.69;100.00;71635.22;5073581;28;20794;-74
2022/05/11 01:08:52;;;;;;;10.10;6.73;;;;;;;-145.69;100.00;71649.16;5073883;28;20195;-74
2022/05/11 01:11:19;;;;;;;9.73;5.60;;;;;;;-145.69;100.00;71653.13;5073754;28;20211;-74
2022/05/11 01:13:48;;;;;;;7.83;5.17;;;;;;;-145.69;100.00;71680.97;5073899;28;20227;-74
2022/05/11 01:16:17;;;;;;;8.23;5.80;;;;;;;-145.69;100.00;71675.00;5073462;28;20649;-74
2022/05/11 01:18:44;;;;;;;9.93;6.37;;;;;;;-145.69;100.00;71649.16;5073765;28;20203;-74
2022/05/11 01:21:11;;;;;;;8.73;5.63;;;;;;;-145.69;100.00;71673.03;5073423;28;20293;-74
2022/05/11 01:23:47;;;;;;;8.63;5.53;;;;;;;-145.69;100.00;71716.81;5073102;28;20564;-74
2022/05/11 01:26:17;;;;;;;9.73;5.97;;;;;;;-145.69;100.00;71724.75;5073339;28;20564;-73
2022/05/11 01:28:46;;;;;;;9.47;5.77;;;;;;;-145.69;100.00;71696.91;5073571;28;20302;-74
2022/05/11 01:31:17;;;;;;;7.37;5.30;;;;;;;-145.69;100.00;71714.81;5073313;28;20206;-74
2022/05/11 01:33:47;;;;;;;9.13;5.77;;;;;;;-145.69;100.00;71726.75;5073708;28;20226;-74
2022/05/11 01:36:24;;;;;;;11.23;6.50;;;;;;;-145.69;100.00;71726.75;5073259;28;20202;-74
2022/05/11 01:38:57;;;;;;;9.77;5.57;;;;;;;-145.69;100.00;71740.69;5072916;28;20202;-74
2022/05/11 01:41:29;;;;;;;12.83;6.30;;;;;;;-145.69;100.00;71728.75;5073337;28;20148;-75
2022/05/11 01:43:56;;;;;;;9.00;5.47;;;;;;;-145.69;100.00;71738.69;5072921;28;20959;-74
2022/05/11 01:46:23;;;;;;;12.67;5.97;;;;;;;-145.69;100.00;71750.63;5072634;28;20269;-74
2022/05/11 01:48:50;;;;;;;12.80;5.67;;;;;;;-145.69;100.00;71724.75;5072907;28;20297;-74
2022/05/11 01:51:22;;;;;;;9.70;5.73;;;;;;;-145.69;100.00;71710.84;5073154;28;20286;-74
2022/05/11 01:53:52;;;;;;;6.33;5.10;;;;;;;-145.69;100.00;71722.78;5072915;28;20804;-74
2022/05/11 01:56:24;;;;;;;10.47;5.43;;;;;;;-145.69;100.00;71736.72;5073098;28;20258;-77
2022/05/11 01:59:00;;;;;;;7.23;4.87;;;;;;;-145.69;100.00;71732.72;5073108;28;20293;-74
2022/05/11 02:01:29;;;;;;;7.20;4.23;;;;;;;-145.69;100.00;71728.75;5072625;28;20195;-74
2022/05/11 02:03:57;;;;;;;6.20;4.80;;;;;;;-145.69;100.00;71716.81;5072987;28;20195;-74
2022/05/11 02:09:12;;;;;;;8.33;4.00;;;;;;;-145.69;100.00;71710.84;5073113;28;20197;-75
2022/05/11 02:11:39;;;;;;;7.97;4.30;;;;;;;-145.69;100.00;71736.72;5072901;28;20203;-74
2022/05/11 02:14:08;;;;;;;7.20;4.20;;;;;;;-145.69;100.00;71726.75;5072841;28;20234;-74
2022/05/11 02:16:35;;;;;;;6.13;4.00;;;;;;;-145.69;100.00;71756.59;5072523;28;20265;-77
2022/05/11 02:19:01;;;;;;;9.83;5.50;;;;;;;-145.69;100.00;71768.53;5072790;28;20202;-74
2022/05/11 02:21:28;;;;;;;9.97;4.53;;;;;;;-145.69;100.00;71764.56;5072734;28;20217;-74
2022/05/11 02:23:54;;;;;;;8.20;4.63;;;;;;;-145.69;100.00;71728.75;5072702;28;20744;-74
2022/05/11 02:26:21;;;;;;;5.50;3.87;;;;;;;-145.69;100.00;71770.53;5072544;28;20198;-74
2022/05/11 02:28:48;;;;;;;8.53;5.13;;;;;;;-145.69;100.00;71796.41;5072648;28;20202;-74
2022/05/11 02:31:16;;;;;;;11.87;5.23;;;;;;;-145.69;100.00;71792.44;5072612;28;20645;-74
2022/05/11 02:33:45;;;;;;;6.47;4.60;;;;;;;-145.69;100.00;71804.38;5072090;28;20287;-74
2022/05/11 02:36:12;;;;;;;7.97;3.90;;;;;;;-145.69;100.00;71792.44;5062991;28;20562;-74
2022/05/11 02:38:42;;;;;;;6.13;4.23;;;;;;;-145.69;100.00;71786.47;5052541;28;20206;-74
2022/05/11 02:41:09;;;;;;;5.23;3.97;;;;;;;-145.69;100.00;71760.59;5052487;28;20195;-74
2022/05/11 02:43:39;;;;;;;6.07;4.10;;;;;;;-145.69;100.00;71740.69;5052477;28;20459;-74
2022/05/11 02:46:05;;;;;;;5.43;4.17;;;;;;;-145.69;100.00;71756.59;5052293;28;20207;-74
2022/05/11 02:48:33;;;;;;;6.37;4.00;;;;;;;-145.69;100.00;71748.66;5061131;28;20285;-74
2022/05/11 02:51:00;;;;;;;6.97;4.10;;;;;;;-145.69;100.00;71764.56;5076217;28;20234;-74
2022/05/11 02:53:28;;;;;;;7.07;4.67;;;;;;;-145.69;100.00;71788.44;5076408;28;20592;-74
2022/05/11 02:55:56;;;;;;;6.13;4.50;;;;;;;-145.69;100.00;71790.44;5075410;28;20202;-73
2022/05/11 02:58:28;;;;;;;6.67;4.53;;;;;;;-145.69;100.00;71820.28;5056185;28;20204;-74
2022/05/11 03:00:58;;;;;;;6.87;4.47;;;;;;;-145.69;100.00;71840.19;5056500;28;20264;-74
2022/05/11 03:03:25;;;;;;;13.83;5.73;;;;;;;-145.69;100.00;71822.28;5056287;28;20565;-74
2022/05/11 03:05:53;;;;;;;7.53;5.23;;;;;;;-145.69;100.00;71844.16;5067714;28;20201;-74
2022/05/11 03:08:20;;;;;;;11.50;5.63;;;;;;;-145.69;100.00;71840.19;5075696;28;20678;-74
2022/05/11 03:10:48;;;;;;;11.60;5.20;;;;;;;-145.69;100.00;71814.31;5075935;28;20244;-77
2022/05/11 03:13:14;;;;;;;8.47;4.93;;;;;;;-145.69;100.00;71780.50;5075691;28;20637;-75
2022/05/11 03:15:42;;;;;;;7.43;4.60;;;;;;;-145.69;100.00;71780.50;5076049;28;20206;-76
2022/05/11 03:18:09;;;;;;;9.17;4.50;;;;;;;-145.69;100.00;71760.59;5075992;28;20203;-76
2022/05/11 03:20:38;;;;;;;9.43;5.00;;;;;;;-145.69;100.00;71742.69;5075890;28;20199;-74
2022/05/11 03:23:09;;;;;;;7.60;4.33;;;;;;;-145.69;100.00;71728.75;5075674;28;20198;-76
2022/05/11 03:25:37;;;;;;;7.70;4.67;;;;;;;-145.69;100.00;71720.78;5075245;28;20199;-77
2022/05/11 03:28:12;;;;;;;7.87;4.97;;;;;;;-145.69;100.00;71710.84;5075913;28;20653;-76
2022/05/11 03:30:38;;;;;;;6.93;4.67;;;;;;;-145.69;100.00;71702.88;5075622;28;20198;-76
2022/05/11 03:35:51;;;;;;;6.50;4.17;;;;;;;-145.69;100.00;71728.75;5075471;28;20214;-76
2022/05/11 03:38:19;;;;;;;7.17;4.60;;;;;;;-145.69;100.00;71734.72;5075437;28;20251;-76
2022/05/11 03:40:46;;;;;;;6.53;4.90;;;;;;;-145.69;100.00;71740.69;5075213;28;20203;-76
2022/05/11 03:43:13;;;;;;;8.37;4.87;;;;;;;-145.69;100.00;71728.75;5075503;28;20199;-76
2022/05/11 03:45:39;;;;;;;10.73;4.70;;;;;;;-145.69;100.00;71746.66;5075457;28;20546;-76
2022/05/11 03:48:06;;;;;;;7.10;4.80;;;;;;;-145.69;100.00;71748.66;5075305;28;20203;-76
2022/05/11 03:50:33;;;;;;;8.30;5.30;;;;;;;-145.69;100.00;71772.53;5075004;28;20615;-75
2022/05/11 03:52:59;;;;;;;8.17;5.10;;;;;;;-145.69;100.00;71772.53;5074833;28;20191;-76
2022/05/11 03:55:28;;;;;;;9.73;5.20;;;;;;;-145.69;100.00;71754.63;5075037;28;20252;-76
2022/05/11 03:57:54;;;;;;;7.50;5.17;;;;;;;-145.69;100.00;71726.75;5075201;28;20202;-76
2022/05/11 04:00:23;;;;;;;12.93;5.03;;;;;;;-145.69;100.00;71728.75;5073745;28;20203;-76
2022/05/11 04:02:50;;;;;;;14.27;5.90;;;;;;;-145.69;100.00;71714.81;5074944;28;20224;-75
2022/05/11 04:05:19;;;;;;;8.23;5.68;;;;;;;-145.69;100.00;71692.94;5074659;28;20469;-75
2022/05/11 04:07:45;;;;;;;11.13;4.83;;;;;;;-145.69;100.00;71680.97;5074278;28;20653;-76
2022/05/11 04:10:14;;;;;;;7.23;4.73;;;;;;;-145.69;100.00;71671.03;5074700;28;20305;-76
2022/05/11 04:12:44;;;;;;;8.37;5.20;;;;;;;-145.69;100.00;71677.00;5074996;28;20194;-76
2022/05/11 04:15:12;;;;;;;9.77;4.40;;;;;;;-145.69;100.00;71673.03;5074584;28;20222;-76
2022/05/11 04:17:39;;;;;;;14.13;4.63;;;;;;;-145.69;100.00;71657.09;5074703;28;20221;-75
2022/05/11 04:20:07;;;;;;;5.57;4.10;;;;;;;-145.69;100.00;71669.03;5074939;28;20199;-76
2022/05/11 04:22:33;;;;;;;7.37;4.60;;;;;;;-145.69;100.00;71665.06;5074977;28;20203;-76
2022/05/11 04:25:00;;;;;;;7.10;4.50;;;;;;;-145.69;100.00;71649.16;5074432;28;20669;-76
2022/05/11 04:27:27;;;;;;;6.13;4.50;;;;;;;-145.69;100.00;71661.09;5074863;28;20214;-76
2022/05/11 04:29:54;;;;;;;8.10;4.90;;;;;;;-145.69;100.00;71645.16;5074578;28;20203;-76
2022/05/11 04:32:21;;;;;;;6.60;4.43;;;;;;;-145.69;100.00;71637.19;5074364;28;20673;-76
2022/05/11 04:34:51;;;;;;;8.77;4.43;;;;;;;-145.69;100.00;71641.19;5074594;28;20624;-75
2022/05/11 04:37:17;;;;;;;9.47;4.70;;;;;;;-145.69;100.00;71619.28;5074628;28;20204;-76
2022/05/11 04:39:44;;;;;;;8.33;4.50;;;;;;;-145.69;100.00;71621.28;5073996;28;20199;-76
2022/05/11 04:42:11;;;;;;;8.97;5.07;;;;;;;-145.69;100.00;71609.34;5074046;28;20207;-76
2022/05/11 04:44:38;;;;;;;10.17;4.90;;;;;;;-145.69;100.00;71621.28;5070804;28;20198;-76
2022/05/11 04:47:11;;;;;;;7.27;4.70;;;;;;;-145.69;100.00;71633.22;5074470;28;20249;-76
2022/05/11 04:49:37;;;;;;;6.30;4.13;;;;;;;-145.69;100.00;71609.34;5074289;28;20288;-76
2022/05/11 04:52:07;;;;;;;10.17;4.83;;;;;;;-145.69;100.00;71597.41;5074045;28;20718;-76
2022/05/11 04:54:36;;;;;;;7.90;4.77;;;;;;;-145.69;100.00;71581.50;5074043;28;20242;-76
2022/05/11 04:57:03;;;;;;;8.97;4.73;;;;;;;-145.69;100.00;71577.50;5073925;28;20729;-76
2022/05/11 04:59:33;;;;;;;7.00;4.47;;;;;;;-145.69;100.00;71573.53;5073650;28;20715;-76
2022/05/11 05:01:59;;;;;;;9.07;5.03;;;;;;;-145.69;100.00;71573.53;5073792;28;20294;-76
2022/05/11 05:04:28;;;;;;;6.50;4.87;;;;;;;-145.69;100.00;71563.56;5073978;28;20301;-76
2022/05/11 05:06:55;;;;;;;8.77;4.90;;;;;;;-145.69;100.00;71547.66;5073301;28;20209;-76
2022/05/11 05:09:24;;;;;;;11.07;4.83;;;;;;;-145.69;100.00;71553.63;5073628;28;20244;-76
2022/05/11 05:11:53;;;;;;;6.10;4.87;;;;;;;-145.69;100.00;71549.66;5073497;28;20198;-76
2022/05/11 05:14:22;;;;;;;8.43;4.60;;;;;;;-145.69;100.00;71545.66;5074678;28;20229;-75
2022/05/11 05:16:49;;;;;;;6.87;5.03;;;;;;;-145.69;100.00;71537.72;5074013;28;20290;-76
2022/05/11 05:19:16;;;;;;;7.97;5.23;;;;;;;-145.69;100.00;71525.78;5073828;28;20260;-76
2022/05/11 05:21:43;;;;;;;8.97;4.77;;;;;;;-145.69;100.00;71517.81;5073674;28;20202;-75
2022/05/11 05:24:10;;;;;;;10.20;5.70;;;;;;;-145.69;100.00;71517.81;5073185;28;20202;-75
2022/05/11 05:26:36;;;;;;;9.82;4.90;;;;;;;-145.69;100.00;71501.88;5073479;28;20649;-75
2022/05/11 05:31:47;;;;;;;9.18;5.30;;;;;;;-145.69;100.00;71472.03;5073453;28;20199;-75
2022/05/11 05:34:13;;;;;;;8.07;4.88;;;;;;;-145.69;100.00;71422.28;5073384;28;20595;-76
2022/05/11 05:36:41;;;;;;;7.90;4.65;;;;;;;-145.69;100.00;71392.44;5073037;28;20203;-76
2022/05/11 05:39:08;;;;;;;9.02;4.22;;;;;;;-145.69;100.00;71358.63;5073268;28;20194;-76
2022/05/11 05:41:38;;;;;;;8.50;4.40;;;;;;;-145.69;100.00;71312.84;5073188;28;20233;-76
2022/05/11 05:44:06;;;;;;;5.65;3.78;;;;;;;-145.69;100.00;71322.81;5073103;28;20260;-75
2022/05/11 05:46:34;;;;;;;8.88;4.00;;;;;;;-145.69;100.00;71314.84;5073206;28;20269;-76
2022/05/11 05:49:04;;;;;;;6.35;4.00;;;;;;;-145.69;100.00;71316.84;5072953;28;20207;-76
2022/05/11 05:51:30;;;;;;;4.60;3.15;;;;;;;-145.69;100.00;71306.88;5073579;28;20226;-76
2022/05/11 05:53:57;;;;;;;4.32;3.55;;;;;;;-145.69;100.00;71296.94;5072482;28;20676;-76
2022/05/11 05:56:25;;;;;;;5.53;3.63;;;;;;;-145.69;100.00;71271.06;5072343;28;20241;-76
2022/05/11 05:58:58;;;;;;;4.57;3.30;;;;;;;-145.69;95.42;71239.22;5073095;28;20203;-75
2022/05/11 06:01:25;;;;;;;6.40;3.58;;;;;;;-145.69;98.85;71231.28;5073294;28;20213;-75
2022/05/11 06:03:52;;;;;;;5.80;3.20;;;;;;;-145.69;99.95;71225.31;5072767;28;20298;-76
2022/05/11 06:06:19;;;;;;;4.47;3.25;;;;;;;-145.69;99.40;71211.38;5073062;28;20210;-76
2022/05/11 06:08:46;;;;;;;5.75;3.40;;;;;;;-145.69;97.59;71185.50;5072494;28;20213;-76
2022/05/11 06:11:13;;;;;;;4.63;3.45;;;;;;;-145.69;95.29;71153.66;5073154;28;20577;-75
2022/05/11 06:13:45;;;;;;;7.47;2.97;;;;;;;-145.69;94.65;71131.78;5072782;28;20203;-76
2022/05/11 06:16:14;;;;;;;5.25;3.28;;;;;;;-145.69;97.57;71115.88;5073027;28;20206;-76
2022/05/11 06:18:41;;;;;;;3.97;2.90;;;;;;;-145.69;87.10;71030.31;5073044;28;20218;-76
2022/05/11 06:21:08;;;;;;;3.33;2.78;;;;;;;-145.69;75.38;70940.78;5072662;28;20496;-76
2022/05/11 06:23:35;;;;;;;2.92;2.38;;;;;;;-145.69;75.70;70857.22;5071562;28;20205;-76
2022/05/11 06:26:02;;;;;;;5.25;2.15;;;;;;;-145.69;72.22;70809.47;5072774;28;20198;-75
2022/05/11 06:28:29;;;;;;;3.00;2.40;;;;;;;-145.69;70.79;70797.53;5072591;28;20206;-74
2022/05/11 06:30:58;;;;;;;4.95;2.60;;;;;;;-145.69;69.07;70789.56;5072256;28;20256;-74
2022/05/11 06:33:26;;;;;;;3.45;2.40;;;;;;;-145.69;66.98;70741.81;5072719;28;20282;-73
2022/05/11 06:35:53;;;;;;;4.20;2.72;;;;;;;-145.69;65.89;70761.72;5072622;28;20240;-74
2022/05/11 06:38:20;;;;;;;3.33;2.60;;;;;;;-145.69;68.76;70749.78;5072679;28;20198;-75
2022/05/11 06:40:48;;;;;;;6.55;2.50;;;;;;;-145.69;65.89;70709.97;5064217;28;20290;-74
2022/05/11 06:43:15;;;;;;;3.38;2.30;;;;;;;-145.69;63.60;70662.22;5052527;28;20254;-75
2022/05/11 06:45:42;;;;;;;3.00;2.47;;;;;;;-145.69;60.69;70630.41;5052282;28;20569;-74
2022/05/11 06:48:12;;;;;;;3.38;2.45;;;;;;;-145.69;62.44;70680.13;5052586;28;20199;-76
2022/05/11 06:50:39;;;;;;;3.25;2.28;;;;;;;-145.69;61.94;70586.63;5052282;28;20771;-76
2022/05/11 06:53:10;;;;;;;2.20;2.00;;;;;;;-145.69;59.08;70578.69;5052577;28;20203;-75
2022/05/11 07:01:10;;;;;;;3.55;2.00;;;;;;;-145.69;59.54;70606.53;5054716;28;20201;-75
2022/05/11 07:03:38;;;;;;;7.22;2.50;;;;;;;-145.69;58.76;70600.56;5072249;28;20198;-76
2022/05/11 07:06:06;;;;;;;5.38;2.80;;;;;;;-145.69;60.74;70594.59;5072343;28;20264;-75
2022/05/11 07:08:38;;;;;;;7.10;2.70;;;;;;;-145.69;56.46;70578.69;5072471;28;20314;-76
2022/05/11 07:13:49;;;;;;;3.22;2.13;;;;;;;-145.69;57.12;70568.72;5052849;28;20280;-75
2022/05/11 07:16:18;;;;;;;2.88;2.13;;;;;;;-145.69;56.13;70610.50;5052061;28;20281;-75
2022/05/11 07:18:46;;;;;;;6.82;2.70;;;;;;;-145.69;56.21;70614.47;5052295;28;20199;-75
2022/05/11 07:21:12;;;;;;;3.05;2.03;;;;;;;-145.69;56.93;70612.50;5052568;28;20196;-75
2022/05/11 07:23:39;;;;;;;7.50;2.45;;;;;;;-145.69;55.86;70602.56;5052605;28;20195;-74
2022/05/11 07:26:05;;;;;;;3.50;2.00;;;;;;;-145.69;57.74;70606.53;5052150;28;20211;-75
2022/05/11 07:28:32;;;;;;;4.60;2.30;;;;;;;-145.69;58.33;70620.44;5064301;28;20248;-75
2022/05/11 07:30:58;;;;;;;3.70;2.10;;;;;;;-145.69;58.45;70642.34;5072245;28;20199;-75
2022/05/11 07:33:27;;;;;;;2.80;2.30;;;;;;;-145.69;58.10;70622.44;5072534;28;20207;-75
2022/05/11 07:35:54;;;;;;;6.70;2.55;;;;;;;-145.69;56.52;70602.56;5075876;28;20223;-75
2022/05/11 07:38:21;;;;;;;6.30;2.35;;;;;;;-145.69;58.10;70596.59;5075845;28;20233;-75
2022/05/11 07:40:47;;;;;;;6.22;2.92;;;;;;;-145.69;55.26;70598.56;5075743;28;20206;-75
2022/05/11 07:43:14;;;;;;;6.03;2.80;;;;;;;-145.69;57.18;70570.72;5075139;28;20202;-75
2022/05/11 07:45:42;;;;;;;8.80;2.47;;;;;;;-145.69;56.77;70542.88;5055144;28;20265;-75
2022/05/11 07:48:09;;;;;;;4.10;2.38;;;;;;;-145.69;54.91;70562.75;5055205;28;20196;-75
2022/05/11 07:50:36;;;;;;;6.05;3.00;;;;;;;-145.69;53.91;70554.81;5055245;28;20275;-75
2022/05/11 07:53:05;;;;;;;4.05;2.47;;;;;;;-145.69;53.73;70550.81;5055368;28;20593;-75
2022/05/11 07:55:33;;;;;;;3.97;2.38;;;;;;;-145.69;54.43;70552.81;5055363;28;20318;-76
2022/05/11 08:00:44;;;;;;;5.22;2.95;;;;;;;-145.69;55.04;70534.91;5069130;28;20205;-75
2022/05/11 08:03:11;;;;;;;5.50;2.60;;;;;;;-145.69;56.25;70511.03;5075094;28;20203;-75
2022/05/11 08:05:38;;;;;;;4.88;2.80;;;;;;;-145.69;55.42;70503.06;5074487;28;20198;-75
2022/05/11 08:08:08;;;;;;;5.22;2.85;;;;;;;-145.69;56.17;70471.25;5075201;28;20286;-76
2022/05/11 08:10:37;;;;;;;5.93;2.72;;;;;;;-145.69;54.95;70473.22;5075168;28;20569;-76
2022/05/11 08:13:07;;;;;;;4.38;2.90;;;;;;;-145.69;53.52;70471.25;5075017;28;20203;-75
2022/05/11 08:15:36;;;;;;;7.07;3.20;;;;;;;-145.69;55.44;70475.22;5075065;28;20226;-75
2022/05/11 08:18:04;;;;;;;3.30;2.60;;;;;;;-145.69;53.22;70485.16;5074855;28;20202;-75
2022/05/11 08:20:34;;;;;;;4.38;3.00;;;;;;;-145.69;53.77;70475.22;5074385;28;20227;-75
2022/05/11 08:23:02;;;;;;;5.10;2.88;;;;;;;-145.69;57.25;70463.28;5075051;28;20286;-75
2022/05/11 08:25:33;;;;;;;6.15;2.83;;;;;;;-145.69;54.61;70453.34;5074735;28;20203;-76
2022/05/11 08:28:00;;;;;;;3.88;2.85;;;;;;;-145.69;55.61;70429.47;5074410;28;20268;-76
2022/05/11 08:33:26;;;;;;;5.28;3.25;;;;;;;-145.69;54.89;70463.28;5061586;28;20206;-75
2022/05/11 08:35:55;;;;;;;4.85;2.72;;;;;;;-145.69;51.98;70479.19;5074487;28;20226;-74
2022/05/11 08:38:23;;;;;;;3.95;3.10;;;;;;;-145.69;57.67;70445.38;5074653;28;20194;-75
2022/05/11 08:40:57;;;;;;;4.32;2.70;;;;;;;-145.69;55.52;70421.50;5074411;28;20199;-76
2022/05/11 08:43:25;;;;;;;8.95;2.75;;;;;;;-145.69;53.83;70407.59;5074698;28;20202;-75
2022/05/11 08:46:03;;;;;;;3.78;2.80;;;;;;;-145.69;53.68;70413.56;5073661;28;20680;-75
2022/05/11 08:48:40;;;;;;;5.03;3.13;;;;;;;-145.69;51.73;70427.47;5073875;28;20648;-76
2022/05/11 08:51:10;;;;;;;7.05;2.85;;;;;;;-145.69;54.33;70403.59;5066903;28;20227;-76
2022/05/11 08:53:39;;;;;;;3.03;2.40;;;;;;;-145.69;51.84;70427.47;5054021;28;20725;-76
2022/05/11 08:56:15;;;;;;;4.18;2.80;;;;;;;-145.69;53.55;70395.66;5054088;28;20223;-76
2022/05/11 08:58:51;;;;;;;6.47;3.28;;;;;;;-145.69;55.94;70363.81;5054316;28;20681;-75
2022/05/11 09:01:23;;;;;;;4.78;2.80;;;;;;;-145.69;54.18;70361.84;5064222;28;20548;-76
2022/05/11 09:03:54;;;;;;;3.92;2.60;;;;;;;-145.69;55.63;70361.84;5073835;28;20198;-76
2022/05/11 09:06:24;;;;;;;4.05;2.80;;;;;;;-145.69;55.94;70335.97;5073870;28;20210;-75
2022/05/11 09:08:52;;;;;;;6.97;2.80;;;;;;;-145.69;52.91;70335.97;5073754;28;20286;-76
2022/05/11 09:11:27;;;;;;;3.97;2.80;;;;;;;-145.69;51.41;70351.88;5073704;28;20302;-76
2022/05/11 09:13:53;;;;;;;3.38;2.50;;;;;;;-145.69;51.17;70359.84;5074080;28;20206;-75
2022/05/11 09:16:23;;;;;;;4.22;2.92;;;;;;;-145.69;51.89;70371.78;5073153;28;20226;-76
2022/05/11 09:18:50;;;;;;;4.07;3.28;;;;;;;-145.69;54.98;70339.94;5073752;28;20731;-76
2022/05/11 09:21:26;;;;;;;6.63;3.03;;;;;;;-145.69;54.11;70328.00;5073721;28;20207;-76
2022/05/11 09:24:04;;;;;;;5.18;2.67;;;;;;;-145.69;49.86;70361.84;5073458;28;20248;-76
2022/05/11 09:26:36;;;;;;;4.60;3.22;;;;;;;-145.69;53.75;70369.78;5073764;28;20202;-76
2022/05/11 09:29:19;;;;;;;3.58;2.85;;;;;;;-145.69;53.65;70351.88;5073726;28;20199;-75
2022/05/11 09:31:46;;;;;;;4.07;2.95;;;;;;;-145.69;55.49;70335.97;5072959;28;20688;-76
2022/05/11 09:34:23;;;;;;;4.32;3.22;;;;;;;-145.69;56.95;70310.09;5073256;28;20584;-75
2022/05/11 09:36:55;;;;;;;5.68;3.47;;;;;;;-145.69;51.07;70300.16;5073673;28;20226;-76
2022/05/11 09:39:22;;;;;;;4.90;2.80;;;;;;;-145.69;51.10;70284.25;5073418;28;20230;-76
2022/05/11 09:41:52;;;;;;;7.70;2.92;;;;;;;-145.69;51.67;70318.06;5073331;28;20546;-76
2022/05/11 09:44:21;;;;;;;6.82;2.88;;;;;;;-145.69;51.13;70339.94;5073229;28;20655;-76
2022/05/11 09:46:48;;;;;;;4.03;2.92;;;;;;;-145.69;52.16;70284.25;5073229;28;20214;-76
2022/05/11 09:49:26;;;;;;;4.35;2.83;;;;;;;-145.69;47.35;70312.09;5072838;28;20766;-76
2022/05/11 09:51:55;;;;;;;4.55;2.80;;;;;;;-145.69;54.81;70320.06;5073289;28;20199;-76
2022/05/11 09:54:32;;;;;;;5.00;2.80;;;;;;;-145.69;49.94;70296.19;5073117;28;20256;-76
2022/05/11 09:57:04;;;;;;;5.25;2.90;;;;;;;-145.69;48.14;70278.28;5051145;28;20722;-77
2022/05/11 09:59:32;;;;;;;3.17;2.78;;;;;;;-145.69;51.72;70260.38;5052694;28;20249;-77
2022/05/11 10:02:05;;;;;;;4.97;2.67;;;;;;;-145.69;49.87;70256.41;5053294;28;20210;-76
2022/05/11 10:04:37;;;;;;;4.65;3.10;;;;;;;-145.69;50.59;70236.50;5065139;28;20206;-77
2022/05/11 10:07:08;;;;;;;5.45;3.17;;;;;;;-145.69;48.22;70264.34;5072504;28;20268;-76
2022/05/11 10:09:40;;;;;;;3.10;2.50;;;;;;;-145.69;51.58;70248.44;5072783;28;20198;-76
2022/05/11 10:12:15;;;;;;;9.68;3.05;;;;;;;-145.69;52.25;70192.75;5072048;28;20194;-78
2022/05/11 10:23:06;;;;;;;9.13;3.90;;;;;;;-145.69;47.55;70111.19;5072872;28;20201;-76
2022/05/11 10:25:38;;;;;;;5.40;3.10;;;;;;;-145.69;45.16;70125.09;5072727;28;20649;-76
2022/05/11 10:28:18;;;;;;;14.43;4.75;;;;;;;-145.69;49.83;70117.16;5072808;28;20202;-76
2022/05/11 10:30:53;;;;;;;5.63;2.78;;;;;;;-145.69;48.98;70097.25;5072585;28;20592;-76
2022/05/11 10:33:43;;;;;;;4.18;3.00;;;;;;;-145.69;49.05;70073.38;5072632;28;20194;-77
2022/05/11 10:36:19;;;;;;;5.88;2.88;;;;;;;-145.69;47.84;70077.38;5052719;28;20234;-76
2022/05/11 10:39:01;;;;;;;5.97;2.72;;;;;;;-145.69;46.18;70101.25;5052463;28;20665;-75
2022/05/11 10:41:34;;;;;;;16.42;4.15;;;;;;;-145.69;48.98;70121.13;5052528;28;20199;-76
2022/05/11 10:44:08;;;;;;;5.18;2.75;;;;;;;-145.69;46.51;70079.34;5052206;28;20227;-75
2022/05/11 10:46:36;;;;;;;4.72;2.40;;;;;;;-145.69;45.80;70083.34;5052432;28;20223;-75
2022/05/11 10:49:27;;;;;;;8.18;3.72;;;;;;;-145.69;46.83;70025.66;5052380;28;20242;-76
2022/05/11 10:52:11;;;;;;;4.47;2.80;;;;;;;-145.69;48.14;69985.88;5052174;28;20657;-77
2022/05/11 10:54:46;;;;;;;8.18;3.03;;;;;;;-145.69;43.61;69997.78;5052527;28;20269;-75
2022/05/11 10:57:24;;;;;;;7.55;2.88;;;;;;;-145.69;44.78;69983.88;5055788;28;20214;-76
2022/05/11 11:00:13;;;;;;;7.15;3.08;;;;;;;-145.69;46.58;69977.91;5072094;28;20203;-76
2022/05/11 11:03:22;;;;;;;7.40;2.70;;;;;;;-145.69;42.97;69954.03;5072694;28;20211;-76
2022/05/11 11:08:57;;;;;;;6.10;2.40;;;;;;;-145.69;44.29;69973.94;5073869;28;20193;-76
2022/05/11 11:11:34;;;;;;;3.17;2.30;;;;;;;-145.69;43.24;70011.72;5075943;28;20198;-76
2022/05/11 11:14:03;;;;;;;2.80;2.30;;;;;;;-145.69;42.10;69987.84;5075870;28;20214;-77
2022/05/11 11:16:33;;;;;;;7.00;2.90;;;;;;;-145.69;44.93;69958.00;5075752;28;21175;-76
2022/05/11 11:19:00;;;;;;;5.30;2.30;;;;;;;-145.69;43.33;69965.97;5075664;28;20198;-77
2022/05/11 11:21:28;;;;;;;3.40;2.50;;;;;;;-145.69;43.51;70009.72;5075583;28;20657;-75
2022/05/11 11:24:14;;;;;;;5.80;2.67;;;;;;;-145.69;40.76;69995.81;5075533;28;20707;-76
2022/05/11 11:26:57;;;;;;;2.53;2.13;;;;;;;-145.69;40.02;70045.53;5075848;28;20194;-76
2022/05/11 11:29:31;;;;;;;5.95;2.65;;;;;;;-145.69;41.55;70055.47;5075726;28;20641;-75
2022/05/11 11:32:12;;;;;;;3.72;2.63;;;;;;;-145.69;44.90;70031.63;5075898;28;20201;-76
2022/05/11 11:34:41;;;;;;;9.25;2.72;;;;;;;-145.69;44.08;69940.13;5075863;28;20289;-76
2022/05/11 11:37:44;;;;;;;3.45;2.20;;;;;;;-145.69;42.90;69952.03;5075189;28;20234;-76
2022/05/11 11:40:23;;;;;;;3.13;2.25;;;;;;;-145.69;42.37;69971.94;5075375;28;20226;-75
2022/05/11 11:42:52;;;;;;;2.50;2.05;;;;;;;-145.69;43.14;69894.38;5075510;28;20653;-76
2022/05/11 11:46:06;;;;;;;5.45;2.33;;;;;;;-145.69;42.03;69886.41;5075525;28;20656;-76
2022/05/11 11:48:38;;;;;;;5.00;2.53;;;;;;;-145.69;44.51;69874.47;5013605;28;20204;-76
2022/05/11 11:51:11;;;;;;;3.38;2.28;;;;;;;-145.69;42.78;69840.66;5069391;28;20250;-76
2022/05/11 11:53:57;;;;;;;4.43;2.55;;;;;;;-145.69;39.93;69858.56;5075086;28;20675;-75
2022/05/11 11:56:47;;;;;;;2.90;2.45;;;;;;;-145.69;43.69;69830.72;5075421;28;20229;-75
2022/05/11 11:59:40;;;;;;;5.43;2.58;;;;;;;-145.69;43.02;69784.97;5075503;28;20202;-77
2022/05/11 12:02:16;;;;;;;9.50;2.20;;;;;;;-145.69;41.03;69814.78;5075111;28;20199;-76